createdAt,value
2022-08-18T00:01:43.400Z,99.90
2022-08-18T00:04:25.211Z,99.90
2022-08-18T00:06:39.258Z,99.90
2022-08-18T00:09:07.108Z,99.90
2022-08-18T00:11:40.594Z,99.90
2022-08-18T00:14:02.237Z,99.90
2022-08-18T00:16:30.096Z,99.90
2022-08-18T00:18:57.651Z,99.90
2022-08-18T00:21:25.224Z,99.90
2022-08-18T00:23:53.084Z,99.90
2022-08-18T00:26:20.649Z,99.90
2022-08-18T00:28:48.222Z,99.90
2022-08-18T00:31:16.181Z,99.90
2022-08-18T00:33:43.733Z,99.90
2022-08-18T00:36:11.288Z,99.90
2022-08-18T00:38:38.892Z,99.90
2022-08-18T00:41:06.466Z,99.90
2022-08-18T00:43:44.181Z,99.90
2022-08-18T00:46:11.735Z,99.90
2022-08-18T00:48:39.301Z,99.90
2022-08-18T00:51:12.488Z,99.90
2022-08-18T00:53:42.965Z,99.90
2022-08-18T00:56:11.400Z,99.90
2022-08-18T00:58:38.115Z,99.90
2022-08-18T01:01:05.723Z,99.90
2022-08-18T01:03:33.262Z,99.90
2022-08-18T01:06:00.837Z,99.90
2022-08-18T01:08:29.173Z,99.90
2022-08-18T01:10:55.964Z,99.90
2022-08-18T01:13:23.564Z,99.90
2022-08-18T01:15:51.117Z,99.90
2022-08-18T01:18:36.988Z,99.90
2022-08-18T01:21:31.488Z,99.90
2022-08-18T01:23:59.063Z,99.90
2022-08-18T01:26:26.731Z,99.90
2022-08-18T01:28:54.284Z,99.90
2022-08-18T01:31:33.965Z,99.90
2022-08-18T01:34:01.536Z,99.90
2022-08-18T01:36:29.094Z,99.90
2022-08-18T01:38:56.677Z,99.90
2022-08-18T01:41:30.349Z,99.90
2022-08-18T01:43:51.825Z,99.90
2022-08-18T01:46:23.247Z,99.90
2022-08-18T01:48:50.804Z,99.90
2022-08-18T01:51:18.387Z,99.90
2022-08-18T01:53:45.923Z,99.90
2022-08-18T01:56:13.487Z,99.90
2022-08-18T01:58:41.041Z,99.90
2022-08-18T02:01:08.615Z,99.90
2022-08-18T02:03:36.179Z,99.90
2022-08-18T02:06:03.744Z,99.90
2022-08-18T02:08:31.328Z,99.90
2022-08-18T02:10:58.882Z,99.90
2022-08-18T02:13:26.457Z,99.90
2022-08-18T02:15:54.080Z,99.90
2022-08-18T02:18:25.921Z,99.90
2022-08-18T02:20:49.198Z,99.90
2022-08-18T02:23:16.792Z,99.90
2022-08-18T02:25:44.338Z,99.90
2022-08-18T02:28:11.902Z,99.90
2022-08-18T02:30:39.761Z,99.90
2022-08-18T02:33:07.335Z,99.90
2022-08-18T02:35:34.896Z,99.90
2022-08-18T02:38:02.480Z,99.90
2022-08-18T02:40:30.045Z,99.90
2022-08-18T02:42:58.369Z,99.90
2022-08-18T02:45:25.942Z,99.90
2022-08-18T02:47:53.505Z,99.90
2022-08-18T02:50:21.059Z,99.90
2022-08-18T02:52:48.633Z,99.90
2022-08-18T02:55:16.201Z,99.90
2022-08-18T02:57:43.802Z,99.90
2022-08-18T03:00:11.377Z,99.90
2022-08-18T03:02:38.931Z,99.90
2022-08-18T03:05:06.534Z,99.90
2022-08-18T03:07:34.183Z,99.90
2022-08-18T03:10:31.248Z,99.90
2022-08-18T03:12:29.306Z,99.90
2022-08-18T03:14:56.901Z,99.90
2022-08-18T03:17:25.232Z,99.90
2022-08-18T03:19:52.892Z,99.90
2022-08-18T03:22:28.353Z,99.90
2022-08-18T03:24:47.914Z,99.90
2022-08-18T03:27:15.489Z,99.90
2022-08-18T03:29:43.082Z,99.90
2022-08-18T03:32:11.405Z,99.90
2022-08-18T03:34:38.972Z,99.90
2022-08-18T03:37:06.554Z,99.90
2022-08-18T03:39:34.190Z,99.90
2022-08-18T03:42:02.199Z,99.90
2022-08-18T03:44:31.904Z,99.90
2022-08-18T03:46:59.469Z,99.90
2022-08-18T03:49:27.106Z,99.90
2022-08-18T03:51:54.629Z,99.90
2022-08-18T03:54:22.945Z,99.90
2022-08-18T03:56:50.484Z,99.90
2022-08-18T03:59:18.181Z,99.90
2022-08-18T04:01:45.768Z,99.90
2022-08-18T04:04:13.265Z,99.90
2022-08-18T04:06:43.808Z,99.90
2022-08-18T04:09:11.347Z,99.90
2022-08-18T04:11:38.912Z,99.90
2022-08-18T04:14:06.506Z,99.90
2022-08-18T04:16:34.110Z,99.90
2022-08-18T04:19:05.189Z,99.90
2022-08-18T04:21:32.774Z,99.90
2022-08-18T04:24:00.348Z,99.90
2022-08-18T04:26:27.903Z,99.90
2022-08-18T04:28:56.708Z,99.90
2022-08-18T04:31:24.222Z,99.90
2022-08-18T04:33:51.788Z,99.90
2022-08-18T04:36:20.699Z,99.90
2022-08-18T04:38:46.993Z,99.90
2022-08-18T04:41:14.554Z,99.90
2022-08-18T04:43:42.181Z,99.90
2022-08-18T04:46:10.513Z,99.90
2022-08-18T04:48:38.076Z,99.90
2022-08-18T04:51:11.529Z,99.90
2022-08-18T04:53:48.025Z,99.90
2022-08-18T04:56:27.088Z,99.90
2022-08-18T04:58:57.589Z,99.90
2022-08-18T05:01:25.210Z,99.90
2022-08-18T05:03:52.775Z,99.90
2022-08-18T05:06:21.115Z,99.90
2022-08-18T05:08:48.680Z,99.90
2022-08-18T05:11:16.282Z,99.90
2022-08-18T05:13:43.847Z,99.90
2022-08-18T05:16:18.148Z,99.90
2022-08-18T05:18:38.997Z,99.90
2022-08-18T05:21:06.589Z,99.90
2022-08-18T05:23:34.144Z,99.90
2022-08-18T05:26:01.738Z,99.90
2022-08-18T05:28:30.120Z,99.90
2022-08-18T05:31:00.438Z,99.90
2022-08-18T05:33:25.297Z,99.90
2022-08-18T05:35:52.852Z,99.90
2022-08-18T05:38:29.238Z,99.90
2022-08-18T05:41:05.636Z,99.90
2022-08-18T05:43:33.189Z,99.90
2022-08-18T05:46:01.522Z,99.90
2022-08-18T05:48:29.134Z,99.90
2022-08-18T05:50:57.459Z,99.90
2022-08-18T05:53:25.013Z,99.90
2022-08-18T05:56:10.682Z,99.90
2022-08-18T05:58:38.247Z,99.90
2022-08-18T06:01:05.812Z,99.90
2022-08-18T06:03:45.512Z,99.90
2022-08-18T06:06:00.971Z,99.90
2022-08-18T06:08:28.544Z,99.90
2022-08-18T06:10:57.792Z,99.90
2022-08-18T06:13:25.356Z,99.90
2022-08-18T06:16:17.173Z,99.90
2022-08-18T06:18:50.428Z,99.90
2022-08-18T06:21:39.305Z,99.90
2022-08-18T06:24:10.536Z,99.90
2022-08-18T06:26:53.844Z,99.90
2022-08-18T06:29:39.455Z,99.90
2022-08-18T06:32:28.474Z,99.90
2022-08-18T06:34:58.825Z,99.90
2022-08-18T06:37:29.097Z,99.90
2022-08-18T06:39:56.738Z,99.90
2022-08-18T06:42:24.275Z,99.90
2022-08-18T06:44:54.332Z,99.90
2022-08-18T06:47:46.148Z,99.90
2022-08-18T06:50:22.180Z,99.90
2022-08-18T06:52:52.432Z,99.90
2022-08-18T06:55:19.985Z,99.90
2022-08-18T06:57:59.985Z,99.90
2022-08-18T07:00:27.568Z,99.90
2022-08-18T07:02:57.899Z,99.90
2022-08-18T07:05:31.097Z,99.90
2022-08-18T07:08:07.386Z,99.90
2022-08-18T07:10:34.938Z,99.90
2022-08-18T07:13:09.513Z,99.90
2022-08-18T07:15:37.067Z,99.90
2022-08-18T07:18:04.632Z,99.90
2022-08-18T07:20:32.236Z,99.90
2022-08-18T07:23:00.568Z,99.90
2022-08-18T07:25:30.584Z,99.90
2022-08-18T07:27:58.227Z,99.90
2022-08-18T07:30:25.790Z,99.90
2022-08-18T07:33:01.764Z,99.90
2022-08-18T07:35:29.371Z,99.90
2022-08-18T07:38:40.699Z,99.90
2022-08-18T07:40:39.918Z,99.90
2022-08-18T07:43:07.461Z,99.90
2022-08-18T07:45:37.664Z,99.90
2022-08-18T07:48:36.553Z,99.90
2022-08-18T07:50:58.351Z,99.90
2022-08-18T07:53:26.792Z,99.90
2022-08-18T07:55:54.366Z,99.90
2022-08-18T07:58:27.395Z,99.90
2022-08-18T08:00:59.145Z,99.90
2022-08-18T08:03:29.859Z,99.90
2022-08-18T08:05:57.424Z,99.90
2022-08-18T08:08:31.083Z,99.90
2022-08-18T08:11:04.609Z,99.90
2022-08-18T08:13:56.005Z,99.90
2022-08-18T08:16:26.288Z,99.90
2022-08-18T08:19:12.571Z,99.90
2022-08-18T08:21:36.885Z,99.90
2022-08-18T08:24:22.843Z,99.90
2022-08-18T08:27:02.516Z,99.90
2022-08-18T08:29:49.084Z,99.90
2022-08-18T08:32:16.805Z,99.90
2022-08-18T08:34:49.884Z,99.90
2022-08-18T08:37:20.560Z,99.90
2022-08-18T08:39:54.160Z,99.90
2022-08-18T08:42:30.697Z,99.90
2022-08-18T08:44:59.091Z,99.90
2022-08-18T08:47:25.596Z,99.90
2022-08-18T08:50:02.697Z,99.90
2022-08-18T08:52:36.193Z,99.90
2022-08-18T08:55:03.964Z,99.90
2022-08-18T08:57:31.824Z,99.90
2022-08-18T08:59:59.408Z,99.90
2022-08-18T09:02:46.741Z,99.90
2022-08-18T09:05:09.951Z,99.90
2022-08-18T09:07:39.961Z,99.90
2022-08-18T09:10:35.794Z,99.90
2022-08-18T09:13:03.349Z,99.90
2022-08-18T09:15:40.713Z,99.90
2022-08-18T09:18:26.629Z,99.90
2022-08-18T09:21:08.963Z,99.90
2022-08-18T09:23:36.530Z,99.90
2022-08-18T09:26:21.556Z,99.90
2022-08-18T09:28:52.763Z,99.90
2022-08-18T09:31:20.337Z,99.90
2022-08-18T09:34:05.063Z,99.90
2022-08-18T09:36:48.428Z,99.90
2022-08-18T09:39:42.456Z,99.90
2022-08-18T09:42:15.910Z,99.60
2022-08-18T09:44:48.570Z,98.80
2022-08-18T09:47:22.293Z,98.60
2022-08-18T09:49:53.118Z,98.10
2022-08-18T09:52:24.405Z,97.30
2022-08-18T09:54:59.189Z,96.90
2022-08-18T09:57:26.746Z,96.00
2022-08-18T09:59:57.192Z,95.60
2022-08-18T10:02:30.429Z,95.40
2022-08-18T10:05:16.080Z,94.90
2022-08-18T10:07:58.128Z,94.00
2022-08-18T10:11:02.239Z,93.50
2022-08-18T10:13:11.212Z,92.50
2022-08-18T10:16:10.175Z,92.40
2022-08-18T10:18:37.557Z,92.30
2022-08-18T10:21:20.918Z,92.20
2022-08-18T10:24:03.139Z,91.20
2022-08-18T10:26:32.540Z,91.20
2022-08-18T10:29:21.877Z,90.50
2022-08-18T10:31:58.629Z,90.50
2022-08-18T10:34:40.818Z,89.30
2022-08-18T10:37:32.830Z,88.20
2022-08-18T10:40:03.699Z,84.80
2022-08-18T10:42:53.559Z,83.30
2022-08-18T10:45:29.885Z,83.30
2022-08-18T10:48:16.871Z,82.30
2022-08-18T10:50:34.062Z,81.20
2022-08-18T10:55:50.555Z,78.20
2022-08-18T10:58:20.833Z,77.60
2022-08-18T11:01:03.685Z,77.40
2022-08-18T11:03:52.136Z,77.20
2022-08-18T11:06:01.752Z,76.70
2022-08-18T11:08:31.671Z,76.30
2022-08-18T11:11:24.439Z,75.70
2022-08-18T11:13:33.256Z,75.10
2022-08-18T11:16:18.977Z,74.20
2022-08-18T11:18:46.542Z,73.70
2022-08-18T11:21:25.824Z,73.30
2022-08-18T11:24:14.177Z,73.30
2022-08-18T11:26:52.897Z,73.50
2022-08-18T11:29:17.917Z,72.70
2022-08-18T11:31:45.510Z,70.40
2022-08-18T11:34:19.811Z,70.50
2022-08-18T11:36:50.130Z,70.00
2022-08-18T11:39:10.749Z,70.30
2022-08-18T11:41:48.588Z,70.20
2022-08-18T11:44:05.878Z,70.90
2022-08-18T11:46:37.046Z,70.90
2022-08-18T11:49:04.454Z,70.50
2022-08-18T11:51:31.317Z,70.00
2022-08-18T11:53:59.953Z,69.80
2022-08-18T11:59:06.566Z,68.10
2022-08-18T12:01:46.476Z,64.90
2022-08-18T12:04:14.025Z,64.90
2022-08-18T12:11:58.417Z,63.00
2022-08-18T12:14:32.286Z,62.90
2022-08-18T12:16:54.168Z,62.90
2022-08-18T12:19:21.120Z,63.20
2022-08-18T12:21:54.919Z,62.50
2022-08-18T12:24:26.184Z,61.70
2022-08-18T12:26:50.073Z,60.90
2022-08-18T12:29:17.627Z,61.40
2022-08-18T12:31:48.070Z,61.20
2022-08-18T12:34:13.477Z,59.70
2022-08-18T12:36:41.490Z,58.80
2022-08-18T12:39:09.082Z,58.70
2022-08-18T12:41:36.825Z,58.00
2022-08-18T12:44:04.187Z,58.10
2022-08-18T12:46:32.342Z,57.90
2022-08-18T12:48:59.916Z,57.40
2022-08-18T12:51:30.576Z,57.00
2022-08-18T12:53:59.794Z,57.20
2022-08-18T12:56:23.428Z,56.90
2022-08-18T12:58:51.005Z,56.90
2022-08-18T13:01:18.652Z,56.80
2022-08-18T13:03:52.628Z,56.40
2022-08-18T13:06:13.718Z,56.50
2022-08-18T13:08:48.186Z,56.50
2022-08-18T13:11:18.805Z,56.60
2022-08-18T13:13:36.489Z,56.30
2022-08-18T13:16:04.044Z,56.40
2022-08-18T13:18:32.399Z,55.50
2022-08-18T13:20:59.962Z,55.50
2022-08-18T13:23:27.796Z,55.60
2022-08-18T13:25:59.499Z,55.40
2022-08-18T13:28:22.703Z,55.30
2022-08-18T13:30:50.305Z,55.30
2022-08-18T13:33:34.801Z,55.30
2022-08-18T13:35:45.474Z,55.30
2022-08-18T13:38:17.414Z,54.50
2022-08-18T13:40:45.471Z,54.40
2022-08-18T13:43:09.331Z,54.40
2022-08-18T13:45:36.549Z,54.50
2022-08-18T13:48:04.146Z,54.40
2022-08-18T13:50:31.668Z,54.30
2022-08-18T13:53:02.004Z,54.40
2022-08-18T13:55:30.291Z,54.60
2022-08-18T13:57:57.857Z,54.60
2022-08-18T14:00:30.528Z,54.10
2022-08-18T14:02:53.046Z,53.90
2022-08-18T14:05:20.649Z,54.10
2022-08-18T14:07:48.525Z,53.40
2022-08-18T14:10:16.081Z,53.60
2022-08-18T14:12:43.635Z,53.50
2022-08-18T14:15:11.584Z,52.70
2022-08-18T14:17:39.177Z,52.50
2022-08-18T14:20:27.253Z,53.00
2022-08-18T14:23:13.337Z,52.90
2022-08-18T14:25:59.666Z,52.60
2022-08-18T14:28:27.841Z,52.00
2022-08-18T14:30:55.430Z,52.00
2022-08-18T14:33:34.424Z,51.90
2022-08-18T14:36:06.037Z,51.70
2022-08-18T14:38:18.169Z,51.00
2022-08-18T14:40:46.402Z,50.60
2022-08-18T14:43:14.194Z,50.60
2022-08-18T14:45:42.288Z,50.20
2022-08-18T14:48:11.179Z,50.20
2022-08-18T14:50:37.542Z,50.20
2022-08-18T14:53:05.108Z,50.10
2022-08-18T14:55:32.702Z,50.50
2022-08-18T14:58:00.263Z,49.60
2022-08-18T15:00:28.014Z,49.40
2022-08-18T15:02:55.431Z,49.30
2022-08-18T15:05:24.360Z,49.30
2022-08-18T15:07:50.623Z,49.20
2022-08-18T15:10:19.966Z,48.80
2022-08-18T15:12:45.760Z,48.80
2022-08-18T15:15:15.959Z,49.10
2022-08-18T15:17:41.512Z,49.40
2022-08-18T15:20:09.097Z,49.50
2022-08-18T15:22:58.530Z,48.90
2022-08-18T15:25:35.134Z,48.90
2022-08-18T15:28:02.708Z,48.80
2022-08-18T15:30:31.086Z,48.90
2022-08-18T15:32:58.587Z,48.80
2022-08-18T15:35:26.487Z,48.80
2022-08-18T15:37:54.149Z,48.90
2022-08-18T15:40:30.816Z,48.80
2022-08-18T15:42:52.361Z,48.40
2022-08-18T15:45:19.819Z,47.80
2022-08-18T15:47:47.384Z,47.70
2022-08-18T15:50:25.285Z,47.90
2022-08-18T15:52:49.235Z,47.50
2022-08-18T15:55:19.424Z,47.40
2022-08-18T15:57:46.991Z,47.60
2022-08-18T16:00:14.563Z,47.80
2022-08-18T16:02:44.757Z,48.20
2022-08-18T16:05:12.017Z,48.60
2022-08-18T16:07:41.263Z,48.90
2022-08-18T16:10:04.888Z,48.80
2022-08-18T16:12:32.505Z,49.00
2022-08-18T16:15:00.173Z,49.20
2022-08-18T16:17:31.809Z,49.60
2022-08-18T16:19:55.247Z,50.50
2022-08-18T16:22:22.820Z,50.90
2022-08-18T16:24:54.879Z,51.40
2022-08-18T16:27:17.989Z,51.80
2022-08-18T16:29:46.353Z,52.10
2022-08-18T16:32:16.353Z,52.10
2022-08-18T16:34:42.080Z,52.30
2022-08-18T16:37:09.696Z,52.90
2022-08-18T16:39:37.292Z,52.20
2022-08-18T16:42:04.816Z,51.80
2022-08-18T16:44:32.391Z,51.70
2022-08-18T16:47:00.001Z,51.90
2022-08-18T16:49:27.562Z,52.40
2022-08-18T16:51:55.140Z,52.60
2022-08-18T16:54:23.502Z,53.20
2022-08-18T16:56:51.077Z,53.20
2022-08-18T16:59:37.695Z,53.70
2022-08-18T17:02:23.096Z,53.70
2022-08-18T17:04:54.292Z,54.20
2022-08-18T17:07:21.851Z,54.20
2022-08-18T17:09:49.445Z,54.50
2022-08-18T17:12:18.171Z,54.50
2022-08-18T17:14:47.176Z,54.80
2022-08-18T17:17:13.278Z,55.20
2022-08-18T17:19:40.879Z,55.60
2022-08-18T17:22:08.444Z,55.40
2022-08-18T17:24:36.008Z,54.60
2022-08-18T17:27:26.281Z,53.90
2022-08-18T17:29:50.722Z,54.00
2022-08-18T17:32:27.471Z,53.80
2022-08-18T17:35:00.552Z,54.00
2022-08-18T17:37:28.111Z,53.80
2022-08-18T17:39:55.760Z,53.80
2022-08-18T17:42:25.915Z,54.10
2022-08-18T17:44:59.396Z,54.20
2022-08-18T17:47:26.991Z,54.30
2022-08-18T17:50:27.883Z,54.20
2022-08-18T17:52:40.421Z,54.40
2022-08-18T17:55:08.744Z,55.00
2022-08-18T17:57:36.315Z,55.00
2022-08-18T18:00:06.955Z,54.70
2022-08-18T18:02:34.506Z,54.90
2022-08-18T18:05:02.110Z,54.70
2022-08-18T18:07:29.695Z,54.40
2022-08-18T18:10:03.006Z,54.10
2022-08-18T18:12:30.548Z,54.10
2022-08-18T18:14:58.125Z,54.60
2022-08-18T18:17:28.735Z,55.10
2022-08-18T18:20:15.654Z,55.50
2022-08-18T18:22:42.202Z,56.00
2022-08-18T18:25:09.737Z,56.50
2022-08-18T18:27:37.420Z,57.00
2022-08-18T18:30:04.984Z,57.50
2022-08-18T18:32:34.951Z,58.00
2022-08-18T18:35:15.836Z,58.50
2022-08-18T18:37:47.083Z,59.30
2022-08-18T18:40:26.521Z,59.20
2022-08-18T18:42:54.881Z,59.90
2022-08-18T18:45:25.173Z,60.60
2022-08-18T18:47:58.781Z,60.20
2022-08-18T18:50:38.327Z,60.50
2022-08-18T18:53:06.184Z,60.30
2022-08-18T18:55:33.743Z,60.80
2022-08-18T18:58:13.145Z,61.40
2022-08-18T19:00:41.491Z,62.50
2022-08-18T19:03:09.067Z,62.50
2022-08-18T19:05:45.654Z,63.00
2022-08-18T19:08:40.444Z,63.60
2022-08-18T19:11:45.661Z,64.30
2022-08-18T19:14:15.930Z,64.30
2022-08-18T19:16:52.438Z,64.70
2022-08-18T19:19:35.447Z,65.10
2022-08-18T19:22:04.169Z,65.50
2022-08-18T19:24:18.299Z,66.00
2022-08-18T19:26:45.888Z,66.40
2022-08-18T19:29:16.492Z,66.80
2022-08-18T19:31:49.780Z,67.00
2022-08-18T19:34:30.997Z,67.40
2022-08-18T19:37:05.697Z,67.40
2022-08-18T19:40:00.401Z,67.20
2022-08-18T19:42:43.608Z,67.60
2022-08-18T19:45:17.613Z,67.90
2022-08-18T19:47:56.798Z,67.60
2022-08-18T19:50:34.000Z,68.50
2022-08-18T19:53:04.578Z,68.50
2022-08-18T19:55:46.873Z,69.00
2022-08-18T19:58:32.853Z,69.70
2022-08-18T20:01:06.195Z,70.30
2022-08-18T20:03:59.749Z,70.10
2022-08-18T20:06:48.322Z,70.40
2022-08-18T20:09:16.947Z,71.50
2022-08-18T20:11:56.520Z,71.40
2022-08-18T20:14:24.106Z,71.00
2022-08-18T20:17:09.642Z,71.50
2022-08-18T20:19:39.670Z,71.80
2022-08-18T20:22:07.261Z,72.20
2022-08-18T20:24:34.800Z,72.90
2022-08-18T20:27:23.225Z,73.20
2022-08-18T20:29:50.829Z,73.80
2022-08-18T20:32:31.064Z,74.40
2022-08-18T20:34:58.679Z,74.80
2022-08-18T20:37:27.444Z,75.20
2022-08-18T20:39:53.846Z,74.80
2022-08-18T20:42:22.172Z,74.90
2022-08-18T20:44:50.499Z,75.40
2022-08-18T20:47:26.505Z,75.40
2022-08-18T20:50:04.005Z,76.70
2022-08-18T20:52:38.035Z,77.50
2022-08-18T20:55:12.042Z,78.40
2022-08-18T20:57:39.462Z,78.30
2022-08-18T21:00:15.957Z,79.30
2022-08-18T21:02:52.512Z,80.10
2022-08-18T21:05:27.984Z,80.80
2022-08-18T21:08:15.000Z,81.40
2022-08-18T21:10:51.691Z,81.70
2022-08-18T21:13:43.093Z,82.10
2022-08-18T21:16:10.687Z,82.50
2022-08-18T21:18:38.260Z,83.20
2022-08-18T21:21:05.835Z,83.50
2022-08-18T21:23:35.920Z,84.20
2022-08-18T21:26:06.881Z,85.30
2022-08-18T21:28:34.450Z,85.30
2022-08-18T21:31:29.314Z,85.00
2022-08-18T21:33:32.556Z,85.40
2022-08-18T21:36:00.121Z,85.60
2022-08-18T21:38:28.513Z,86.30
2022-08-18T21:40:56.844Z,86.60
2022-08-18T21:43:48.840Z,86.50
2022-08-18T21:46:12.924Z,87.70
2022-08-18T21:48:45.615Z,87.60
2022-08-18T21:51:22.326Z,87.20
2022-08-18T21:53:49.860Z,87.60
2022-08-18T21:56:20.114Z,88.50
2022-08-18T21:58:47.721Z,88.10
2022-08-18T22:01:24.295Z,87.70
2022-08-18T22:03:54.643Z,88.00
2022-08-18T22:06:34.193Z,87.80
2022-08-18T22:09:04.504Z,88.20
2022-08-18T22:12:00.833Z,89.20
2022-08-18T22:14:53.860Z,90.70
2022-08-18T22:17:25.909Z,90.40
2022-08-18T22:19:54.272Z,91.30
2022-08-18T22:22:39.953Z,91.30
2022-08-18T22:25:07.547Z,91.70
2022-08-18T22:27:35.865Z,91.70
2022-08-18T22:30:06.139Z,91.70
2022-08-18T22:32:37.435Z,92.20
2022-08-18T22:35:05.727Z,92.50
2022-08-18T22:37:33.290Z,92.50
2022-08-18T22:40:01.313Z,92.70
2022-08-18T22:42:28.824Z,93.00
2022-08-18T22:45:00.131Z,93.60
2022-08-18T22:47:24.030Z,93.40
2022-08-18T22:49:52.384Z,93.30
2022-08-18T22:52:29.594Z,93.50
2022-08-18T22:54:52.582Z,93.80
2022-08-18T22:57:20.159Z,93.80
2022-08-18T22:59:48.492Z,94.50
2022-08-18T23:02:16.360Z,94.50
2022-08-18T23:04:43.935Z,94.70
2022-08-18T23:07:11.502Z,95.00
2022-08-18T23:09:39.102Z,94.70
2022-08-18T23:12:06.677Z,95.00
2022-08-18T23:14:34.241Z,95.60
2022-08-18T23:17:01.845Z,95.30
2022-08-18T23:19:29.410Z,95.40
2022-08-18T23:21:56.964Z,95.50
2022-08-18T23:24:25.623Z,95.80
2022-08-18T23:26:53.175Z,95.50
2022-08-18T23:29:20.729Z,95.60
2022-08-18T23:31:48.336Z,95.80
2022-08-18T23:34:15.898Z,96.20
2022-08-18T23:36:45.790Z,96.60
2022-08-18T23:39:11.841Z,97.10
2022-08-18T23:41:39.408Z,96.70
2022-08-18T23:44:07.740Z,97.30
2022-08-18T23:46:35.620Z,96.90
2022-08-18T23:49:03.185Z,97.10
2022-08-18T23:51:33.200Z,97.30
2022-08-18T23:54:01.167Z,97.50
2022-08-18T23:56:28.741Z,97.90
2022-08-18T23:58:57.345Z,98.30
